Time;durP1;ratioP1;P1;durP2;ratioP2;P2;SDS_P1;SDS_P2;PMS_P1;PMS_P2;Temp;Humidity;BMP_temperature;BMP_pressure;BME280_temperature;BME280_humidity;BME280_pressure;Samples;Min_cycle;Max_cycle;Signal;HPM_P1;HPM_P2
2022/09/12 00:01:05;;;;;;;11.30;7.05;;;;;;;13.04;100.00;100917.72;5119076;29;20039;-74
2022/09/12 00:03:37;;;;;;;10.65;6.20;;;;;;;13.01;100.00;100921.31;5118485;28;20042;-74
2022/09/12 00:06:19;;;;;;;8.52;5.28;;;;;;;12.91;100.00;100913.81;5117827;29;20063;-75
2022/09/12 00:08:53;;;;;;;8.75;5.63;;;;;;;12.72;100.00;100920.72;5117301;29;20496;-75
2022/09/12 00:11:23;;;;;;;7.07;5.00;;;;;;;12.67;100.00;100917.38;5118274;29;20039;-75
2022/09/12 00:13:59;;;;;;;7.93;5.55;;;;;;;12.61;100.00;100909.78;5101296;29;20086;-77
2022/09/12 00:16:32;;;;;;;10.07;6.97;;;;;;;12.63;100.00;100918.44;5117877;29;20158;-74
2022/09/12 00:19:04;;;;;;;10.60;6.40;;;;;;;12.61;100.00;100912.38;5119882;29;20114;-75
2022/09/12 00:21:36;;;;;;;9.60;6.43;;;;;;;12.53;100.00;100911.84;5111262;28;20520;-75
2022/09/12 00:24:09;;;;;;;10.32;7.10;;;;;;;12.53;100.00;100911.84;5102962;29;20035;-75
2022/09/12 00:26:39;;;;;;;11.00;7.07;;;;;;;12.58;100.00;100909.91;5119465;29;20039;-74
2022/09/12 00:29:15;;;;;;;10.00;7.30;;;;;;;12.54;100.00;100913.56;5120891;29;20034;-74
2022/09/12 00:31:46;;;;;;;10.25;7.40;;;;;;;12.57;100.00;100905.56;5104233;28;20027;-74
2022/09/12 00:34:17;;;;;;;12.18;7.65;;;;;;;12.52;100.00;100912.75;5121048;29;20074;-74
2022/09/12 00:36:47;;;;;;;12.98;7.72;;;;;;;12.50;100.00;100905.84;5117772;28;20134;-75
2022/09/12 00:39:18;;;;;;;11.02;7.68;;;;;;;12.53;100.00;100903.97;5120168;28;20034;-74
2022/09/12 00:41:48;;;;;;;12.45;7.43;;;;;;;12.69;100.00;100904.22;5121238;28;20041;-76
2022/09/12 00:44:22;;;;;;;10.45;6.88;;;;;;;12.49;100.00;100904.97;5119822;29;20039;-75
2022/09/12 00:47:13;;;;;;;12.85;7.93;;;;;;;12.38;100.00;100898.44;5120478;29;20552;-75
2022/09/12 00:50:03;;;;;;;10.15;7.10;;;;;;;12.24;100.00;100898.09;5120095;29;20031;-77
2022/09/12 00:52:41;;;;;;;10.35;7.40;;;;;;;12.23;100.00;100899.88;5120205;28;20027;-76
2022/09/12 00:55:34;;;;;;;10.77;6.65;;;;;;;12.15;100.00;100896.66;5120662;29;20026;-75
2022/09/12 00:58:08;;;;;;;8.00;6.05;;;;;;;12.08;100.00;100892.59;5119987;29;20039;-75
2022/09/12 01:00:38;;;;;;;9.48;6.80;;;;;;;12.07;100.00;100900.47;5121274;29;20501;-74
2022/09/12 01:03:14;;;;;;;11.45;6.93;;;;;;;11.98;100.00;100896.44;5103966;29;20094;-74
2022/09/12 01:06:13;;;;;;;10.27;7.00;;;;;;;12.01;100.00;100896.34;5120740;28;20528;-74
2022/09/12 01:08:46;;;;;;;11.82;7.72;;;;;;;12.04;100.00;100892.75;5119348;29;20118;-74
2022/09/12 01:11:18;;;;;;;9.32;6.53;;;;;;;12.11;100.00;100892.47;5121494;29;20031;-74
2022/09/12 01:13:49;;;;;;;10.75;7.47;;;;;;;12.03;100.00;100884.03;5121203;28;20019;-73
2022/09/12 01:16:20;;;;;;;15.32;8.30;;;;;;;12.00;100.00;100883.28;5120568;29;20090;-75
2022/09/12 01:19:23;;;;;;;15.70;8.63;;;;;;;12.03;100.00;100877.94;5120023;29;20027;-75
2022/09/12 01:22:36;;;;;;;12.35;8.00;;;;;;;12.18;100.00;100878.25;5120618;28;20035;-75
2022/09/12 01:25:21;;;;;;;15.82;9.27;;;;;;;12.05;100.00;100887.47;5198823;23;20518;-74
2022/09/12 01:28:17;;;;;;;14.50;9.70;;;;;;;12.13;100.00;100879.31;5190669;28;20040;-74
2022/09/12 01:30:54;;;;;;;18.95;11.43;;;;;;;12.14;100.00;100881.03;5172879;28;20462;-73
2022/09/12 01:33:39;;;;;;;17.02;10.85;;;;;;;12.18;100.00;100885.25;5186318;28;20026;-74
2022/09/12 01:36:29;;;;;;;16.00;10.63;;;;;;;12.24;100.00;100879.75;5186719;28;20037;-72
2022/09/12 01:39:03;;;;;;;17.00;10.30;;;;;;;12.20;100.00;100879.03;5180799;28;20025;-74
2022/09/12 01:41:58;;;;;;;17.25;11.18;;;;;;;12.30;100.00;100882.16;5191963;28;20494;-74
2022/09/12 01:44:59;;;;;;;18.55;11.23;;;;;;;12.21;100.00;100878.13;5182535;28;20323;-73
2022/09/12 01:47:55;;;;;;;17.70;10.48;;;;;;;12.27;100.00;100877.88;5183546;28;20036;-74
2022/09/12 01:50:39;;;;;;;19.40;11.32;;;;;;;12.40;100.00;100873.91;5183543;28;20034;-74
2022/09/12 01:53:18;;;;;;;16.33;10.57;;;;;;;12.32;100.00;100870.69;5171442;28;20029;-74
2022/09/12 01:55:54;;;;;;;16.25;9.68;;;;;;;12.43;100.00;100871.16;5192737;28;20089;-74
2022/09/12 01:58:37;;;;;;;16.52;11.07;;;;;;;12.32;100.00;100872.47;5184856;28;20033;-74
2022/09/12 02:01:15;;;;;;;17.38;11.10;;;;;;;12.34;100.00;100862.78;5192133;28;20104;-73
2022/09/12 02:03:53;;;;;;;16.02;10.32;;;;;;;12.30;100.00;100859.41;5173043;28;20033;-74
2022/09/12 02:06:32;;;;;;;15.65;10.13;;;;;;;12.14;100.00;100860.06;5187895;28;20025;-74
2022/09/12 02:09:09;;;;;;;18.55;10.30;;;;;;;12.23;100.00;100867.56;5177666;28;20029;-74
2022/09/12 02:11:43;;;;;;;14.45;9.43;;;;;;;12.22;100.00;100861.50;5192344;28;20459;-74
2022/09/12 02:14:24;;;;;;;14.32;9.73;;;;;;;12.27;100.00;100866.56;5188214;28;20091;-73
2022/09/12 02:17:01;;;;;;;15.25;9.93;;;;;;;12.10;100.00;100868.97;5168634;28;20026;-74
2022/09/12 02:19:50;;;;;;;16.27;10.40;;;;;;;12.03;100.00;100864.84;5166974;28;20033;-73
2022/09/12 02:22:25;;;;;;;15.63;8.93;;;;;;;11.80;100.00;100864.81;5183845;28;20471;-73
2022/09/12 02:24:59;;;;;;;14.48;9.48;;;;;;;11.91;100.00;100863.53;5183034;28;20209;-74
2022/09/12 02:27:36;;;;;;;12.95;9.65;;;;;;;12.08;100.00;100855.03;5189623;28;20147;-72
2022/09/12 02:30:08;;;;;;;14.43;8.60;;;;;;;12.14;100.00;100855.66;5188115;28;20026;-74
2022/09/12 02:33:00;;;;;;;15.90;9.07;;;;;;;12.13;100.00;100861.81;5188707;28;20542;-74
2022/09/12 02:35:45;;;;;;;15.07;9.38;;;;;;;12.00;100.00;100855.34;5184387;28;20026;-74
2022/09/12 02:38:32;;;;;;;14.20;9.23;;;;;;;11.83;100.00;100860.34;5186318;28;20037;-73
2022/09/12 02:41:03;;;;;;;19.10;8.75;;;;;;;11.67;100.00;100858.31;5187379;28;20383;-74
2022/09/12 02:43:33;;;;;;;16.58;8.07;;;;;;;11.56;100.00;100860.44;5190287;28;20237;-74
2022/09/12 02:46:15;;;;;;;10.00;6.80;;;;;;;11.76;100.00;100856.22;5187832;28;20026;-73
2022/09/12 02:48:45;;;;;;;16.63;5.65;;;;;;;11.73;100.00;100847.59;5187823;28;20084;-73
2022/09/12 02:51:16;;;;;;;7.90;6.13;;;;;;;11.47;100.00;100848.50;5189858;28;20033;-73
2022/09/12 02:53:47;;;;;;;26.25;7.35;;;;;;;11.66;100.00;100849.63;5188130;28;20057;-73
2022/09/12 02:56:23;;;;;;;11.23;7.25;;;;;;;11.61;100.00;100841.06;5189364;28;20018;-74
2022/09/12 02:58:58;;;;;;;12.90;7.82;;;;;;;11.57;100.00;100847.31;5186418;28;20200;-73
2022/09/12 03:01:28;;;;;;;11.55;7.93;;;;;;;11.54;100.00;100836.94;5183671;28;20077;-73
2022/09/12 03:04:08;;;;;;;13.68;8.18;;;;;;;11.40;100.00;100833.94;5190660;28;20479;-73
2022/09/12 03:07:03;;;;;;;12.60;7.65;;;;;;;11.36;100.00;100836.69;5187942;28;20176;-73
2022/09/12 03:09:44;;;;;;;14.73;9.18;;;;;;;11.40;100.00;100839.16;5178618;28;20115;-73
2022/09/12 03:12:22;;;;;;;14.43;9.38;;;;;;;11.57;100.00;100838.59;5190939;28;20029;-73
2022/09/12 03:15:09;;;;;;;17.95;9.80;;;;;;;11.55;100.00;100841.25;5188849;28;20021;-73
2022/09/12 03:17:42;;;;;;;14.90;10.45;;;;;;;11.45;100.00;100839.84;5185790;28;20075;-74
2022/09/12 03:20:20;;;;;;;18.40;10.93;;;;;;;11.44;100.00;100840.75;5188298;28;20111;-73
2022/09/12 03:22:55;;;;;;;20.80;13.60;;;;;;;11.41;100.00;100842.66;5189872;28;20407;-73
2022/09/12 03:25:47;;;;;;;17.42;11.38;;;;;;;11.36;100.00;100831.47;5182959;28;20065;-74
2022/09/12 03:28:20;;;;;;;14.27;9.07;;;;;;;11.42;100.00;100836.50;5163144;28;20061;-74
2022/09/12 03:30:53;;;;;;;15.50;9.80;;;;;;;11.29;100.00;100837.81;5187777;28;20045;-74
2022/09/12 03:33:24;;;;;;;15.32;9.73;;;;;;;11.24;100.00;100837.97;5184222;28;20045;-74
2022/09/12 03:35:55;;;;;;;31.88;9.65;;;;;;;11.37;100.00;100839.28;5183687;28;20021;-74
2022/09/12 03:38:25;;;;;;;14.77;8.90;;;;;;;11.42;100.00;100834.72;5189146;28;20406;-74
2022/09/12 03:40:55;;;;;;;12.00;7.93;;;;;;;11.44;100.00;100835.53;5188011;28;20030;-74
2022/09/12 03:43:26;;;;;;;14.32;8.60;;;;;;;11.31;100.00;100842.09;5193067;28;20521;-74
2022/09/12 03:45:56;;;;;;;10.55;7.95;;;;;;;11.28;100.00;100841.34;5188099;28;20030;-74
2022/09/12 03:48:26;;;;;;;13.90;8.65;;;;;;;11.29;100.00;100838.66;5189864;28;20032;-74
2022/09/12 03:51:01;;;;;;;11.13;7.97;;;;;;;11.31;100.00;100844.69;5190483;28;20480;-74
2022/09/12 03:53:32;;;;;;;9.43;7.10;;;;;;;11.29;100.00;100843.06;5193164;28;20033;-74
2022/09/12 03:56:10;;;;;;;9.95;6.97;;;;;;;11.31;100.00;100838.63;5190879;28;20542;-73
2022/09/12 03:58:41;;;;;;;8.88;6.50;;;;;;;11.23;100.00;100846.72;5190631;28;20112;-74
2022/09/12 04:01:13;;;;;;;9.75;6.63;;;;;;;11.23;100.00;100846.72;5191762;28;20391;-73
2022/09/12 04:03:46;;;;;;;9.20;6.82;;;;;;;11.15;100.00;100850.50;5181315;28;20083;-73
2022/09/12 04:06:21;;;;;;;9.15;6.80;;;;;;;11.38;100.00;100846.22;5188612;28;20109;-74
2022/09/12 04:08:53;;;;;;;10.10;6.90;;;;;;;11.27;100.00;100848.34;5192431;28;20393;-74
2022/09/12 04:11:23;;;;;;;11.90;7.30;;;;;;;11.37;100.00;100847.13;5192136;28;20025;-75
2022/09/12 04:13:53;;;;;;;11.32;6.85;;;;;;;11.39;100.00;100839.19;5192462;28;20018;-75
2022/09/12 04:16:24;;;;;;;13.85;7.78;;;;;;;11.41;100.00;100845.25;5192490;28;20029;-74
2022/09/12 04:18:54;;;;;;;87.05;8.00;;;;;;;11.24;100.00;100853.69;5188898;28;20030;-74
2022/09/12 04:21:25;;;;;;;11.88;7.20;;;;;;;11.29;100.00;100850.91;5184856;28;20117;-74
2022/09/12 04:23:55;;;;;;;12.52;6.28;;;;;;;11.18;100.00;100853.88;5193314;28;20107;-74
2022/09/12 04:26:28;;;;;;;10.15;6.00;;;;;;;11.08;100.00;100855.09;5154804;28;20562;-74
2022/09/12 04:28:59;;;;;;;16.23;6.63;;;;;;;11.02;100.00;100850.06;5192350;28;20029;-74
2022/09/12 04:31:29;;;;;;;8.95;6.15;;;;;;;10.87;100.00;100856.72;5190583;28;20049;-74
2022/09/12 04:34:00;;;;;;;11.90;6.70;;;;;;;10.74;100.00;100853.63;5180773;28;20021;-74
2022/09/12 04:36:32;;;;;;;10.30;6.95;;;;;;;10.67;100.00;100851.25;5189082;28;20426;-74
2022/09/12 04:39:04;;;;;;;10.95;7.65;;;;;;;10.62;100.00;100855.75;5192398;28;20108;-75
2022/09/12 04:41:37;;;;;;;11.25;7.82;;;;;;;10.68;100.00;100852.97;5191681;28;20500;-74
2022/09/12 04:44:12;;;;;;;12.50;7.90;;;;;;;10.87;100.00;100857.53;5189879;28;20472;-74
2022/09/12 04:46:45;;;;;;;10.52;6.95;;;;;;;10.89;100.00;100855.72;5190262;28;20041;-74
2022/09/12 04:49:18;;;;;;;9.95;7.03;;;;;;;10.99;100.00;100856.31;5169692;28;20068;-74
2022/09/12 04:51:51;;;;;;;12.07;7.85;;;;;;;10.97;100.00;100852.88;5184660;28;20030;-73
2022/09/12 04:54:21;;;;;;;12.20;7.55;;;;;;;10.95;100.00;100865.16;5192073;28;20025;-74
2022/09/12 04:56:53;;;;;;;11.07;7.25;;;;;;;10.95;100.00;100860.78;5188032;28;20033;-74
2022/09/12 04:59:24;;;;;;;10.88;7.43;;;;;;;11.02;100.00;100866.66;5167294;28;20088;-74
2022/09/12 05:01:54;;;;;;;13.65;8.02;;;;;;;11.09;100.00;100864.66;5183772;28;20046;-74
2022/09/12 05:04:24;;;;;;;12.95;8.10;;;;;;;10.98;100.00;100859.81;5182895;28;20083;-74
2022/09/12 05:06:55;;;;;;;12.38;8.10;;;;;;;10.92;100.00;100865.25;5181798;28;20137;-74
2022/09/12 05:09:25;;;;;;;13.90;8.32;;;;;;;11.13;100.00;100865.41;5185363;28;20040;-74
2022/09/12 05:11:55;;;;;;;11.88;8.75;;;;;;;11.01;100.00;100862.34;5182665;28;20522;-72
2022/09/12 05:14:26;;;;;;;13.98;8.88;;;;;;;11.04;100.00;100865.69;5180246;28;20060;-74
2022/09/12 05:16:59;;;;;;;13.38;8.02;;;;;;;11.25;100.00;100858.00;5191176;28;20124;-74
2022/09/12 05:19:30;;;;;;;13.82;8.52;;;;;;;11.41;100.00;100856.56;5188266;28;20453;-74
2022/09/12 05:22:00;;;;;;;12.55;8.50;;;;;;;11.19;100.00;100866.06;5167567;28;20018;-74
2022/09/12 05:24:31;;;;;;;14.50;9.27;;;;;;;11.28;100.00;100855.28;5191961;28;20044;-74
2022/09/12 05:27:03;;;;;;;12.55;8.70;;;;;;;11.45;100.00;100858.16;5187893;28;20042;-74
2022/09/12 05:29:34;;;;;;;13.27;8.63;;;;;;;11.53;100.00;100857.91;5189061;28;20035;-74
2022/09/12 05:32:04;;;;;;;12.98;8.63;;;;;;;11.45;100.00;100868.63;5185300;28;20395;-73
2022/09/12 05:34:34;;;;;;;13.48;8.90;;;;;;;11.33;100.00;100869.06;5179292;28;20254;-74
2022/09/12 05:37:04;;;;;;;13.75;8.90;;;;;;;11.28;100.00;100868.34;5189750;28;20395;-74
2022/09/12 05:39:35;;;;;;;13.10;9.13;;;;;;;11.36;100.00;100868.97;5187822;28;20032;-74
2022/09/12 05:42:05;;;;;;;13.25;8.55;;;;;;;11.45;100.00;100868.63;5192407;28;20050;-74
2022/09/12 05:44:36;;;;;;;12.85;8.38;;;;;;;11.70;100.00;100860.81;5190761;28;20025;-74
2022/09/12 05:47:06;;;;;;;14.63;8.80;;;;;;;11.72;100.00;100861.63;5186732;28;20056;-74
2022/09/12 05:49:37;;;;;;;11.77;8.25;;;;;;;11.87;100.00;100875.03;5188462;28;20055;-74
2022/09/12 05:52:07;;;;;;;13.93;8.45;;;;;;;11.97;100.00;100862.44;5190111;28;20025;-74
2022/09/12 05:54:37;;;;;;;16.05;9.65;;;;;;;11.97;100.00;100871.16;5189013;28;20476;-74
2022/09/12 05:57:08;;;;;;;15.30;8.90;;;;;;;12.00;100.00;100863.22;5171504;28;20025;-74
2022/09/12 05:59:38;;;;;;;13.15;8.88;;;;;;;12.28;100.00;100868.28;5189268;28;20022;-74
2022/09/12 06:02:10;;;;;;;14.88;9.32;;;;;;;12.23;100.00;100871.06;5186812;28;20060;-74
2022/09/12 06:04:40;;;;;;;13.98;9.25;;;;;;;12.35;100.00;100878.47;5188162;28;20025;-74
2022/09/12 06:07:11;;;;;;;17.90;8.43;;;;;;;12.29;100.00;100870.81;5187939;28;20026;-71
2022/09/12 06:09:41;;;;;;;14.50;9.60;;;;;;;12.41;100.00;100875.59;5189489;28;20104;-75
2022/09/12 06:12:12;;;;;;;15.35;9.77;;;;;;;12.46;100.00;100876.28;5185262;28;20244;-73
2022/09/12 06:14:42;;;;;;;18.00;10.60;;;;;;;12.55;100.00;100875.06;5165514;28;20025;-74
2022/09/12 06:17:13;;;;;;;17.33;10.55;;;;;;;12.72;100.00;100870.00;5188593;28;20377;-74
2022/09/12 06:19:44;;;;;;;16.35;10.95;;;;;;;12.91;100.00;100871.84;5170489;28;20030;-74
2022/09/12 06:22:15;;;;;;;17.77;11.07;;;;;;;13.12;100.00;100868.38;5189727;28;20414;-73
2022/09/12 06:24:45;;;;;;;16.98;11.20;;;;;;;12.96;100.00;100864.66;5188307;28;20025;-73
2022/09/12 06:27:15;;;;;;;19.42;11.30;;;;;;;13.19;100.00;100869.81;5187747;28;20044;-74
2022/09/12 06:29:46;;;;;;;19.02;11.32;;;;;;;13.44;100.00;100865.28;5186493;28;20026;-74
2022/09/12 06:32:16;;;;;;;19.33;11.50;;;;;;;13.50;100.00;100859.75;5184419;28;20032;-74
2022/09/12 06:34:46;;;;;;;18.08;11.85;;;;;;;13.53;100.00;100860.47;5184519;28;20475;-75
2022/09/12 06:37:17;;;;;;;20.40;11.75;;;;;;;13.73;100.00;100857.00;5184692;28;20176;-74
2022/09/12 06:39:47;;;;;;;18.25;11.35;;;;;;;13.75;100.00;100863.03;5188465;28;20025;-74
2022/09/12 06:42:18;;;;;;;19.92;11.32;;;;;;;13.88;100.00;100861.59;5189433;28;20498;-72
2022/09/12 06:44:49;;;;;;;18.65;11.52;;;;;;;14.04;100.00;100858.19;5189680;28;20018;-74
2022/09/12 06:47:20;;;;;;;19.80;11.45;;;;;;;14.25;100.00;100853.75;5188992;28;20074;-74
2022/09/12 06:49:50;;;;;;;19.67;11.32;;;;;;;14.37;100.00;100851.41;5187089;28;20061;-74
2022/09/12 06:52:20;;;;;;;18.48;10.88;;;;;;;14.66;100.00;100845.66;5172072;28;20032;-74
2022/09/12 06:54:50;;;;;;;15.90;10.05;;;;;;;14.78;100.00;100844.19;5187753;28;20468;-74
2022/09/12 06:57:21;;;;;;;14.63;10.30;;;;;;;14.90;100.00;100845.31;5189670;28;20026;-74
2022/09/12 06:59:51;;;;;;;15.38;9.10;;;;;;;15.56;100.00;100841.09;5171063;28;20021;-75
2022/09/12 07:02:21;;;;;;;14.85;8.95;;;;;;;17.54;100.00;100836.03;5186680;28;20115;-75
2022/09/12 07:04:51;;;;;;;11.00;7.22;;;;;;;19.37;92.23;100828.56;5185153;28;20530;-75
2022/09/12 07:07:23;;;;;;;10.30;6.80;;;;;;;20.18;84.30;100829.97;5184993;28;20119;-75
2022/09/12 07:09:53;;;;;;;11.27;6.72;;;;;;;20.27;84.53;100835.47;5187893;28;20024;-75
2022/09/12 07:12:23;;;;;;;10.23;6.10;;;;;;;21.58;81.79;100835.31;5185065;28;20021;-75
2022/09/12 07:14:53;;;;;;;8.82;5.45;;;;;;;22.67;77.00;100823.88;5185950;28;20033;-79
2022/09/12 07:17:24;;;;;;;8.75;5.30;;;;;;;21.85;80.11;100840.34;5168392;28;20060;-76
2022/09/12 07:19:54;;;;;;;8.20;4.70;;;;;;;23.77;75.15;100834.09;5190418;28;20049;-79
2022/09/12 07:22:24;;;;;;;6.97;4.85;;;;;;;23.94;70.03;100827.31;5180271;28;20124;-77
2022/09/12 07:24:56;;;;;;;6.53;4.47;;;;;;;24.98;67.46;100827.69;5181394;28;20113;-75
2022/09/12 07:27:26;;;;;;;6.95;4.40;;;;;;;23.53;73.07;100841.50;5166555;28;20287;-75
2022/09/12 07:29:57;;;;;;;9.65;4.70;;;;;;;22.93;72.70;100838.59;5190685;28;20052;-74
2022/09/12 07:32:27;;;;;;;7.47;4.63;;;;;;;22.94;76.88;100842.09;5187929;28;20056;-73
2022/09/12 07:34:57;;;;;;;6.10;4.40;;;;;;;23.45;77.26;100841.31;5182699;28;20033;-75
2022/09/12 07:37:31;;;;;;;7.03;4.70;;;;;;;24.83;69.55;100831.75;5192005;28;20755;-74
2022/09/12 07:40:01;;;;;;;7.10;4.30;;;;;;;25.32;67.16;100834.34;5191288;28;20284;-75
2022/09/12 07:42:32;;;;;;;5.80;3.80;;;;;;;25.94;67.67;100826.63;5193115;28;20036;-75
2022/09/12 07:45:02;;;;;;;6.17;4.53;;;;;;;26.32;65.63;100837.22;5192644;28;20472;-76
2022/09/12 07:47:32;;;;;;;8.32;4.97;;;;;;;24.69;67.91;100834.81;5192474;28;20311;-75
2022/09/12 07:50:03;;;;;;;5.70;4.00;;;;;;;24.48;72.67;100841.19;5190899;28;20030;-76
2022/09/12 07:52:33;;;;;;;9.23;4.70;;;;;;;23.52;74.42;100845.16;5192883;28;20350;-75
2022/09/12 07:55:04;;;;;;;6.27;4.43;;;;;;;24.71;70.78;100837.34;5192128;28;20105;-75
2022/09/12 07:57:34;;;;;;;8.77;5.13;;;;;;;24.74;68.98;100833.41;5192052;28;20280;-76
2022/09/12 08:00:07;;;;;;;5.80;4.13;;;;;;;24.53;70.99;100842.50;5190969;28;20050;-76
2022/09/12 08:02:38;;;;;;;7.80;4.65;;;;;;;23.99;72.91;100835.78;5173338;28;20353;-75
2022/09/12 08:05:08;;;;;;;8.00;5.07;;;;;;;25.53;66.62;100832.34;5174875;28;20049;-76
2022/09/12 08:07:38;;;;;;;9.77;5.00;;;;;;;25.46;70.04;100828.56;5190208;28;20055;-75
2022/09/12 08:10:09;;;;;;;8.77;5.10;;;;;;;24.44;71.98;100845.97;5193987;28;20032;-76
2022/09/12 08:12:39;;;;;;;9.13;5.30;;;;;;;25.11;70.01;100839.78;5191783;28;20272;-76
2022/09/12 08:15:10;;;;;;;12.87;4.97;;;;;;;25.30;67.37;100833.66;5192276;28;20030;-76
2022/09/12 08:17:40;;;;;;;8.82;5.20;;;;;;;26.23;65.32;100833.59;5173121;28;20619;-76
2022/09/12 08:20:11;;;;;;;11.43;5.03;;;;;;;26.40;65.44;100834.63;5173802;28;20124;-74
2022/09/12 08:22:42;;;;;;;8.70;4.25;;;;;;;26.30;67.24;100840.03;5191704;28;20507;-75
2022/09/12 08:25:12;;;;;;;11.07;4.82;;;;;;;28.27;61.99;100824.28;5191962;28;20022;-75
2022/09/12 08:27:42;;;;;;;9.68;5.40;;;;;;;25.41;67.99;100841.50;5190364;28;20052;-73
2022/09/12 08:30:13;;;;;;;9.67;5.23;;;;;;;26.61;65.50;100838.78;5191337;28;20018;-75
2022/09/12 08:32:43;;;;;;;8.02;5.18;;;;;;;24.81;71.74;100839.06;5191571;28;20762;-75
2022/09/12 08:35:14;;;;;;;10.77;5.40;;;;;;;24.41;72.95;100840.88;5191618;28;20028;-76
2022/09/12 08:37:44;;;;;;;7.60;4.63;;;;;;;25.68;69.57;100841.63;5191099;28;20412;-76
2022/09/12 08:40:15;;;;;;;9.20;4.50;;;;;;;27.69;64.58;100830.47;5192366;28;20041;-76
2022/09/12 08:42:57;;;;;;;9.15;5.00;;;;;;;26.31;66.86;100838.22;5174602;28;20280;-76
2022/09/12 08:45:53;;;;;;;9.15;4.50;;;;;;;27.73;62.04;100832.72;5185862;28;20030;-76
2022/09/12 08:48:23;;;;;;;6.80;4.00;;;;;;;28.34;64.20;100832.59;5170149;28;20399;-76
2022/09/12 08:50:54;;;;;;;8.98;4.32;;;;;;;26.63;68.62;100834.13;5192942;28;20021;-76
2022/09/12 08:53:29;;;;;;;11.52;4.22;;;;;;;26.81;65.58;100833.19;5189222;28;20476;-76
2022/09/12 08:55:59;;;;;;;7.00;5.00;;;;;;;25.71;68.29;100826.13;5185909;28;20022;-76
2022/09/12 08:58:38;;;;;;;8.15;4.90;;;;;;;25.31;68.25;100830.81;5191077;28;20554;-76
2022/09/12 09:01:26;;;;;;;7.30;4.32;;;;;;;26.57;65.13;100825.84;5173183;28;20037;-76
2022/09/12 09:04:05;;;;;;;8.82;4.53;;;;;;;25.69;67.50;100828.06;5178032;28;20026;-76
2022/09/12 09:06:54;;;;;;;7.13;3.50;;;;;;;27.46;62.67;100822.06;5187093;28;20155;-75
2022/09/12 09:09:51;;;;;;;8.32;4.53;;;;;;;25.65;67.10;100820.50;5191989;28;20312;-76
2022/09/12 09:12:37;;;;;;;7.05;4.32;;;;;;;27.46;63.72;100816.69;5170986;28;20045;-76
2022/09/12 09:15:20;;;;;;;6.18;3.90;;;;;;;28.39;60.42;100820.34;5188103;28;20037;-76
2022/09/12 09:17:54;;;;;;;7.85;3.58;;;;;;;28.00;62.27;100813.75;5190554;28;20399;-76
2022/09/12 09:20:35;;;;;;;6.95;4.10;;;;;;;26.56;67.38;100822.31;5188591;28;20427;-76
2022/09/12 09:23:27;;;;;;;7.70;3.88;;;;;;;26.05;64.97;100811.25;5187628;28;20053;-73
2022/09/12 09:26:25;;;;;;;8.10;4.30;;;;;;;25.93;65.99;100808.88;5184888;28;20032;-74
2022/09/12 09:29:04;;;;;;;7.90;4.07;;;;;;;25.04;68.30;100811.91;5183471;28;20026;-76
2022/09/12 09:31:38;;;;;;;7.20;4.60;;;;;;;24.88;68.47;100811.63;5190279;28;20028;-75
2022/09/12 09:34:20;;;;;;;8.50;4.38;;;;;;;25.12;68.12;100805.88;5190777;28;20026;-75
2022/09/12 09:37:12;;;;;;;7.72;3.58;;;;;;;24.94;69.34;100810.22;5189582;28;20427;-75
2022/09/12 09:40:21;;;;;;;12.05;4.90;;;;;;;24.17;69.09;100812.78;5188856;28;20458;-75
2022/09/12 09:43:18;;;;;;;6.43;3.92;;;;;;;25.22;68.91;100796.03;5152102;28;20152;-75
2022/09/12 09:45:50;;;;;;;9.35;4.38;;;;;;;24.73;67.38;100788.09;5172253;28;20026;-74
2022/09/12 09:48:31;;;;;;;8.55;4.97;;;;;;;23.77;70.40;100799.38;5166993;28;20132;-74
2022/09/12 09:51:05;;;;;;;8.70;4.80;;;;;;;23.01;71.00;100800.66;5164722;28;20040;-75
2022/09/12 09:53:43;;;;;;;7.32;4.45;;;;;;;23.57;71.63;100794.06;5171717;28;20033;-75
2022/09/12 09:56:34;;;;;;;11.23;5.10;;;;;;;23.34;71.52;100790.69;5187088;28;20519;-75
2022/09/12 09:59:19;;;;;;;8.20;4.60;;;;;;;23.62;71.58;100787.34;5184109;28;20263;-75
2022/09/12 10:02:12;;;;;;;8.95;4.53;;;;;;;23.12;71.05;100782.78;5183629;28;20578;-75
2022/09/12 10:04:54;;;;;;;6.47;3.95;;;;;;;23.31;71.54;100780.28;5187359;28;20033;-75
2022/09/12 10:07:25;;;;;;;8.88;4.50;;;;;;;23.36;71.71;100783.38;5167296;28;20065;-75
2022/09/12 10:10:06;;;;;;;12.25;4.20;;;;;;;22.95;76.30;100788.66;5182359;28;20025;-75
2022/09/12 10:12:36;;;;;;;7.43;4.10;;;;;;;23.14;75.56;100780.84;5188511;28;20030;-75
2022/09/12 10:15:20;;;;;;;8.90;4.75;;;;;;;23.03;72.02;100775.53;5188490;28;20503;-75
2022/09/12 10:17:51;;;;;;;12.43;5.63;;;;;;;23.31;73.25;100777.59;5186354;28;20033;-75
2022/09/12 10:20:40;;;;;;;8.40;4.20;;;;;;;22.81;74.59;100778.28;5189237;28;20079;-74
2022/09/12 10:23:23;;;;;;;7.07;3.53;;;;;;;23.31;71.31;100771.41;5185931;28;20113;-74
2022/09/12 10:25:57;;;;;;;5.93;3.53;;;;;;;22.92;71.78;100762.25;5186556;28;20036;-75
2022/09/12 10:28:36;;;;;;;7.30;3.47;;;;;;;22.74;71.16;100766.44;5181222;28;20266;-75
2022/09/12 10:31:09;;;;;;;6.20;3.10;;;;;;;22.70;72.59;100765.00;5170774;28;20037;-75
2022/09/12 10:33:46;;;;;;;6.18;2.92;;;;;;;22.98;71.32;100759.06;5186708;28;20546;-74
2022/09/12 10:36:17;;;;;;;6.95;3.03;;;;;;;22.88;70.35;100752.81;5168551;28;20036;-75
2022/09/12 10:38:59;;;;;;;4.50;2.30;;;;;;;22.98;67.91;100758.25;5188375;28;20049;-75
2022/09/12 10:41:38;;;;;;;3.63;1.75;;;;;;;22.86;67.73;100757.41;5185344;28;20649;-75
2022/09/12 10:44:17;;;;;;;4.07;1.60;;;;;;;22.79;68.69;100764.25;5188371;28;20491;-74
2022/09/12 10:46:47;;;;;;;4.25;1.67;;;;;;;23.06;69.40;100753.91;5185711;28;20542;-75
2022/09/12 10:49:21;;;;;;;4.18;2.00;;;;;;;23.26;71.49;100758.47;5188742;28;20029;-75
2022/09/12 10:51:53;;;;;;;2.80;1.77;;;;;;;23.16;69.94;100749.56;5186546;28;20072;-75
2022/09/12 10:54:26;;;;;;;5.72;2.22;;;;;;;22.97;71.10;100746.72;5171302;28;20742;-75
2022/09/12 10:57:24;;;;;;;5.95;2.47;;;;;;;22.77;67.42;100750.19;5180295;28;20033;-75
2022/09/12 10:59:54;;;;;;;5.63;2.45;;;;;;;22.92;72.13;100751.59;5186678;28;20014;-75
2022/09/12 11:02:42;;;;;;;5.35;2.85;;;;;;;22.40;73.71;100749.84;5188802;28;20029;-75
2022/09/12 11:05:17;;;;;;;4.07;2.40;;;;;;;22.45;75.10;100740.47;5188444;28;20067;-75
2022/09/12 11:08:01;;;;;;;5.70;2.63;;;;;;;22.40;77.14;100739.19;5170212;28;20098;-75
2022/09/12 11:10:53;;;;;;;5.25;2.80;;;;;;;22.42;73.13;100737.25;5184918;28;20030;-76
2022/09/12 11:13:32;;;;;;;4.80;2.47;;;;;;;22.50;72.83;100734.78;5188806;28;20072;-75
2022/09/12 11:16:08;;;;;;;5.50;2.97;;;;;;;22.79;73.22;100732.25;5183100;28;20385;-74
2022/09/12 11:19:06;;;;;;;5.30;2.83;;;;;;;22.63;72.72;100722.16;5186998;28;20029;-75
2022/09/12 11:21:50;;;;;;;5.43;2.70;;;;;;;22.89;72.91;100722.53;5167034;28;20049;-75
2022/09/12 11:24:54;;;;;;;8.52;3.30;;;;;;;22.17;72.10;100730.34;5186539;28;20025;-75
2022/09/12 11:28:02;;;;;;;5.47;2.97;;;;;;;22.32;70.88;100720.28;5189328;28;20025;-75
2022/09/12 11:30:49;;;;;;;5.78;2.85;;;;;;;22.49;72.72;100723.28;5184142;28;20022;-75
2022/09/12 11:33:42;;;;;;;5.32;2.80;;;;;;;22.55;72.08;100724.59;5187488;28;20022;-75
2022/09/12 11:36:31;;;;;;;5.95;2.70;;;;;;;22.76;73.45;100715.66;5186246;28;20364;-75
2022/09/12 11:39:13;;;;;;;4.47;2.30;;;;;;;22.73;73.44;100712.44;5164440;28;20041;-75
2022/09/12 11:41:48;;;;;;;4.95;2.60;;;;;;;23.11;74.02;100701.09;5171217;28;20387;-74
2022/09/12 11:44:25;;;;;;;3.88;2.30;;;;;;;23.14;70.40;100705.31;5189896;28;20087;-75
2022/09/12 11:46:56;;;;;;;4.93;2.70;;;;;;;23.01;70.17;100704.66;5185173;28;20514;-75
2022/09/12 11:49:32;;;;;;;5.10;2.00;;;;;;;22.84;72.21;100711.38;5182058;28;20095;-75
2022/09/12 11:52:05;;;;;;;5.03;2.45;;;;;;;22.90;72.01;100708.22;5189373;28;20460;-75
2022/09/12 11:54:47;;;;;;;4.28;2.13;;;;;;;23.05;72.76;100701.56;5187483;28;20404;-73